Terminal Aerodrome Forecast
Issued by NWS

Home | Current Version | Previous Version | Text Only | Print | Product List | Glossary On
Versions: 1 2 3 4 5 6 7 8 9 10 11 12 13
000
FTUS45 KABQ 211100
TAFAEG
TAF
KAEG 211134Z 2112/2212 31006KT P6SM BKN070
     FM211700 31010G18KT P6SM SCT060 SCT200
     FM220100 30008KT P6SM SCT050 BKN200=

USA.gov is the U.S. government's official web portal to all federal, state and local government web resources and services.